Time;durP1;ratioP1;P1;durP2;ratioP2;P2;SDS_P1;SDS_P2;PMS_P1;PMS_P2;Temp;Humidity;BMP_temperature;BMP_pressure;BME280_temperature;BME280_humidity;BME280_pressure;Samples;Min_cycle;Max_cycle;Signal;HPM_P1;HPM_P2
2022/09/28 00:01:46;;;;;;;8.68;6.20;;;;;;;;;;5048875;28;20067;-67
2022/09/28 00:04:12;;;;;;;6.43;5.38;;;;;;;;;;5049364;28;20510;-67
2022/09/28 00:06:38;;;;;;;7.95;5.88;;;;;;;;;;5050667;28;20037;-67
2022/09/28 00:09:04;;;;;;;9.18;6.00;;;;;;;;;;5049831;28;20548;-68
2022/09/28 00:11:30;;;;;;;7.60;6.05;;;;;;;;;;5048970;28;20083;-67
2022/09/28 00:14:01;;;;;;;9.32;5.75;;;;;;;;;;5047486;28;20125;-67
2022/09/28 00:16:28;;;;;;;8.93;5.57;;;;;;;;;;5049118;28;20060;-67
2022/09/28 00:18:54;;;;;;;9.90;6.07;;;;;;;;;;5046064;28;20052;-67
2022/09/28 00:21:25;;;;;;;8.02;5.53;;;;;;;;;;5049982;28;20049;-67
2022/09/28 00:26:37;;;;;;;7.47;5.70;;;;;;;;;;5050668;28;20454;-67
2022/09/28 00:29:04;;;;;;;8.98;5.70;;;;;;;;;;5049823;28;20049;-67
2022/09/28 00:31:31;;;;;;;9.55;6.10;;;;;;;;;;5049764;28;20392;-67
2022/09/28 00:33:59;;;;;;;8.95;6.15;;;;;;;;;;5046972;28;20067;-67
2022/09/28 00:36:28;;;;;;;11.00;6.75;;;;;;;;;;5048732;28;20087;-67
2022/09/28 00:38:57;;;;;;;8.50;5.90;;;;;;;;;;5051268;28;20055;-67
2022/09/28 00:41:24;;;;;;;11.10;7.00;;;;;;;;;;5049992;28;20230;-67
2022/09/28 00:43:50;;;;;;;11.93;7.80;;;;;;;;;;5049365;28;20048;-67
2022/09/28 00:46:19;;;;;;;9.82;7.15;;;;;;;;;;5051635;28;20052;-67
2022/09/28 00:48:57;;;;;;;8.93;6.15;;;;;;;;;;5050923;28;20398;-67
2022/09/28 00:51:24;;;;;;;7.68;6.22;;;;;;;;;;5050397;28;20037;-67
2022/09/28 00:53:50;;;;;;;10.02;6.50;;;;;;;;;;5050013;28;20032;-68
2022/09/28 00:56:18;;;;;;;11.48;7.18;;;;;;;;;;5050473;28;20502;-67
2022/09/28 00:58:49;;;;;;;8.50;6.32;;;;;;;;;;5051145;28;20387;-67
2022/09/28 01:01:15;;;;;;;;;;;;;;;;;;5050822;28;20037;-67
2022/09/28 01:03:44;;;;;;;7.40;5.63;;;;;;;;;;5046344;28;20321;-67
2022/09/28 01:06:12;;;;;;;9.80;6.45;;;;;;;;;;5048601;28;20391;-67
2022/09/28 01:08:39;;;;;;;9.63;6.38;;;;;;;;;;5050149;28;20048;-67
2022/09/28 01:11:05;;;;;;;9.05;6.63;;;;;;;;;;5049767;28;20036;-67
2022/09/28 01:13:32;;;;;;;9.15;6.75;;;;;;;;;;5047043;28;20505;-67
2022/09/28 01:15:58;;;;;;;9.82;6.68;;;;;;;;;;5051320;28;20399;-67
2022/09/28 01:18:30;;;;;;;9.57;6.20;;;;;;;;;;5044668;28;20037;-67
2022/09/28 01:21:00;;;;;;;10.75;6.60;;;;;;;;;;5049808;28;20041;-67
2022/09/28 01:23:45;;;;;;;13.10;7.60;;;;;;;;;;5048172;28;20403;-67
2022/09/28 01:26:30;;;;;;;12.80;8.43;;;;;;;;;;5049765;28;20453;-67
2022/09/28 01:29:00;;;;;;;5.90;4.90;;;;;;;;;;5048220;28;20110;-67
2022/09/28 01:31:29;;;;;;;7.03;5.30;;;;;;;;;;5047385;28;20036;-67
2022/09/28 01:33:57;;;;;;;9.38;6.28;;;;;;;;;;5047802;28;20379;-67
2022/09/28 01:36:28;;;;;;;10.85;6.43;;;;;;;;;;5049666;28;20079;-67
2022/09/28 01:39:02;;;;;;;8.27;6.20;;;;;;;;;;5050415;28;20045;-67
2022/09/28 01:41:30;;;;;;;9.10;6.47;;;;;;;;;;5053990;28;20446;-67
2022/09/28 01:43:58;;;;;;;9.05;6.07;;;;;;;;;;5052523;28;20060;-67
2022/09/28 01:46:27;;;;;;;9.48;6.55;;;;;;;;;;5052265;28;20510;-67
2022/09/28 01:48:57;;;;;;;8.13;6.05;;;;;;;;;;5051777;28;20394;-67
2022/09/28 01:51:34;;;;;;;8.25;6.43;;;;;;;;;;5054122;28;20041;-67
2022/09/28 01:54:02;;;;;;;7.93;6.05;;;;;;;;;;5054634;28;20045;-67
2022/09/28 01:56:31;;;;;;;9.32;6.45;;;;;;;;;;5053848;28;20441;-67
2022/09/28 01:59:21;;;;;;;11.18;7.05;;;;;;;;;;5052595;28;20048;-67
2022/09/28 02:01:52;;;;;;;11.10;7.53;;;;;;;;;;5050777;28;20040;-67
2022/09/28 02:04:21;;;;;;;10.50;7.70;;;;;;;;;;5052251;28;20037;-67
2022/09/28 02:06:53;;;;;;;12.10;8.23;;;;;;;;;;5045205;28;20033;-67
2022/09/28 02:09:33;;;;;;;7.05;5.68;;;;;;;;;;5066676;22;20017;-65
2022/09/28 02:12:02;;;;;;;10.20;7.47;;;;;;;;;;5047153;28;20343;-65
2022/09/28 02:14:29;;;;;;;12.98;7.07;;;;;;;;;;5035797;28;20045;-65
2022/09/28 02:16:56;;;;;;;10.32;7.32;;;;;;;;;;5054422;28;20045;-65
2022/09/28 02:19:24;;;;;;;11.23;7.35;;;;;;;;;;5052765;28;20068;-65
2022/09/28 02:21:56;;;;;;;8.55;7.43;;;;;;;;;;5039117;28;20128;-65
2022/09/28 02:24:46;;;;;;;12.02;8.07;;;;;;;;;;5048333;28;20045;-65
2022/09/28 02:27:15;;;;;;;10.25;7.50;;;;;;;;;;5050299;28;20098;-65
2022/09/28 02:29:41;;;;;;;10.38;7.50;;;;;;;;;;5053026;28;20033;-65
2022/09/28 02:32:07;;;;;;;13.20;8.55;;;;;;;;;;5060586;28;20031;-65
2022/09/28 02:34:34;;;;;;;13.80;9.40;;;;;;;;;;5047449;28;20049;-65
2022/09/28 02:37:01;;;;;;;12.02;8.77;;;;;;;;;;5048956;28;20402;-65
2022/09/28 02:39:27;;;;;;;11.88;9.05;;;;;;;;;;5049834;28;20052;-65
2022/09/28 02:41:55;;;;;;;11.65;8.18;;;;;;;;;;5054065;28;20033;-65
2022/09/28 02:44:27;;;;;;;13.02;8.20;;;;;;;;;;5070565;28;20036;-65
2022/09/28 02:47:04;;;;;;;14.77;9.15;;;;;;;;;;5054025;28;20037;-65
2022/09/28 02:49:32;;;;;;;13.20;9.38;;;;;;;;;;5050393;28;20442;-65
2022/09/28 02:52:19;;;;;;;14.52;9.18;;;;;;;;;;5048875;28;20115;-65
2022/09/28 02:54:59;;;;;;;13.40;8.20;;;;;;;;;;5053762;28;20041;-65
2022/09/28 02:57:41;;;;;;;13.32;8.90;;;;;;;;;;5064189;28;20072;-65
2022/09/28 03:00:10;;;;;;;12.32;8.80;;;;;;;;;;5061878;28;20497;-65
2022/09/28 03:02:55;;;;;;;15.82;10.40;;;;;;;;;;5053762;28;20049;-65
2022/09/28 03:05:21;;;;;;;16.15;10.23;;;;;;;;;;5042812;28;20036;-65
2022/09/28 03:07:53;;;;;;;15.70;10.73;;;;;;;;;;5054752;28;20044;-65
2022/09/28 03:10:38;;;;;;;16.60;10.60;;;;;;;;;;5057912;28;20112;-65
2022/09/28 03:13:04;;;;;;;21.48;12.50;;;;;;;;;;5056799;28;20052;-65
2022/09/28 03:15:31;;;;;;;22.42;11.38;;;;;;;;;;5052563;28;20502;-65
2022/09/28 03:17:58;;;;;;;17.30;11.45;;;;;;;;;;5055249;28;20049;-65
2022/09/28 03:20:24;;;;;;;17.02;10.90;;;;;;;;;;5043048;28;20115;-65
2022/09/28 03:22:50;;;;;;;18.73;10.63;;;;;;;;;;5051236;28;20048;-65
2022/09/28 03:25:16;;;;;;;16.23;9.80;;;;;;;;;;5072162;28;20448;-65
2022/09/28 03:27:43;;;;;;;16.23;10.38;;;;;;;;;;5060791;28;20053;-65
2022/09/28 03:30:09;;;;;;;15.20;9.93;;;;;;;;;;5048110;28;20075;-65
2022/09/28 03:32:35;;;;;;;15.98;9.45;;;;;;;;;;5056148;28;20037;-65
2022/09/28 03:35:01;;;;;;;16.13;9.93;;;;;;;;;;5049666;28;20405;-65
2022/09/28 03:37:27;;;;;;;14.85;9.45;;;;;;;;;;5054206;28;20049;-65
2022/09/28 03:39:54;;;;;;;15.40;9.88;;;;;;;;;;5055277;28;20120;-65
2022/09/28 03:42:20;;;;;;;15.48;10.02;;;;;;;;;;5046060;28;20045;-65
2022/09/28 03:44:46;;;;;;;15.27;9.82;;;;;;;;;;5051075;28;20048;-65
2022/09/28 03:47:14;;;;;;;15.20;9.65;;;;;;;;;;5051122;28;20109;-65
2022/09/28 03:49:40;;;;;;;15.60;10.23;;;;;;;;;;5048246;28;20041;-65
2022/09/28 03:52:06;;;;;;;15.50;10.05;;;;;;;;;;5044309;28;20037;-65
2022/09/28 03:54:32;;;;;;;22.27;13.10;;;;;;;;;;5052049;28;20052;-65
2022/09/28 03:56:58;;;;;;;20.52;12.68;;;;;;;;;;5051537;28;20045;-65
2022/09/28 03:59:24;;;;;;;21.15;13.20;;;;;;;;;;5052341;28;20045;-65
2022/09/28 04:01:51;;;;;;;21.63;12.95;;;;;;;;;;5048019;28;20420;-65
2022/09/28 04:04:17;;;;;;;22.45;13.18;;;;;;;;;;5041978;28;20534;-65
2022/09/28 04:06:43;;;;;;;25.75;13.80;;;;;;;;;;5044164;28;20394;-65
2022/09/28 04:09:09;;;;;;;27.50;14.70;;;;;;;;;;5049697;28;20398;-65
2022/09/28 04:11:35;;;;;;;26.33;14.18;;;;;;;;;;5044954;28;20041;-65
2022/09/28 04:14:01;;;;;;;29.95;16.75;;;;;;;;;;5051621;28;20033;-65
2022/09/28 04:16:27;;;;;;;31.17;18.30;;;;;;;;;;5049912;28;20053;-65
2022/09/28 04:18:53;;;;;;;31.67;16.13;;;;;;;;;;5050657;28;20041;-65
2022/09/28 04:21:20;;;;;;;29.77;17.17;;;;;;;;;;5038538;28;20124;-65
2022/09/28 04:23:47;;;;;;;33.50;17.58;;;;;;;;;;5032183;28;20084;-65
2022/09/28 04:26:17;;;;;;;31.17;17.17;;;;;;;;;;5049356;28;20066;-64
2022/09/28 04:31:29;;;;;;;42.97;17.55;;;;;;;;;;5042931;28;20045;-65
2022/09/28 04:33:58;;;;;;;39.63;17.88;;;;;;;;;;5051728;28;20056;-65
2022/09/28 04:36:24;;;;;;;41.92;18.33;;;;;;;;;;5039762;28;20487;-64
2022/09/28 04:38:51;;;;;;;35.78;17.10;;;;;;;;;;5045560;28;20125;-65
2022/09/28 04:41:17;;;;;;;33.78;17.50;;;;;;;;;;5048974;28;20079;-65
2022/09/28 04:43:45;;;;;;;37.60;16.63;;;;;;;;;;5051084;28;20045;-65
2022/09/28 04:46:12;;;;;;;27.38;15.25;;;;;;;;;;5049946;28;20570;-64
2022/09/28 04:48:38;;;;;;;24.83;14.20;;;;;;;;;;5053724;28;20053;-64
2022/09/28 04:51:04;;;;;;;27.00;15.32;;;;;;;;;;5043345;28;20037;-65
2022/09/28 04:53:30;;;;;;;26.70;15.55;;;;;;;;;;5050118;28;20095;-65
2022/09/28 04:55:57;;;;;;;29.90;16.42;;;;;;;;;;5051522;28;20437;-65
2022/09/28 04:58:23;;;;;;;32.72;16.30;;;;;;;;;;5049779;28;20552;-65
2022/09/28 05:00:50;;;;;;;30.17;16.10;;;;;;;;;;5050977;28;20079;-65
2022/09/28 05:03:16;;;;;;;28.77;15.10;;;;;;;;;;5050183;28;20044;-65
2022/09/28 05:05:43;;;;;;;33.58;15.35;;;;;;;;;;5042879;28;20555;-64
2022/09/28 05:08:10;;;;;;;28.40;14.43;;;;;;;;;;5045885;28;20045;-65
2022/09/28 05:10:39;;;;;;;30.90;15.95;;;;;;;;;;5050539;28;20120;-64
2022/09/28 05:13:05;;;;;;;29.38;15.85;;;;;;;;;;5051350;28;20118;-65
2022/09/28 05:15:31;;;;;;;52.17;15.82;;;;;;;;;;5054767;28;20045;-65
2022/09/28 05:17:57;;;;;;;54.45;15.65;;;;;;;;;;5053434;28;20147;-65
2022/09/28 05:20:23;;;;;;;58.67;16.67;;;;;;;;;;5053489;28;20410;-65
2022/09/28 05:22:49;;;;;;;50.95;17.50;;;;;;;;;;5053134;28;20045;-65
2022/09/28 05:25:15;;;;;;;38.85;15.52;;;;;;;;;;5055951;28;20051;-64
2022/09/28 05:27:41;;;;;;;40.67;15.55;;;;;;;;;;5040912;28;20042;-64
2022/09/28 05:30:09;;;;;;;38.25;16.20;;;;;;;;;;5053922;28;20037;-65
2022/09/28 05:32:39;;;;;;;32.38;14.77;;;;;;;;;;5053282;28;20041;-65
2022/09/28 05:35:05;;;;;;;45.28;16.48;;;;;;;;;;5045159;28;20494;-65
2022/09/28 05:37:31;;;;;;;30.67;15.00;;;;;;;;;;5052983;28;20051;-65
2022/09/28 05:39:57;;;;;;;26.50;14.50;;;;;;;;;;5054330;28;20112;-65
2022/09/28 05:42:23;;;;;;;29.75;15.25;;;;;;;;;;5054318;28;20110;-65
2022/09/28 05:44:49;;;;;;;33.13;16.13;;;;;;;;;;5053971;28;20098;-65
2022/09/28 05:47:15;;;;;;;35.47;16.75;;;;;;;;;;5051476;28;20036;-65
2022/09/28 05:49:41;;;;;;;36.22;16.23;;;;;;;;;;5050990;28;20033;-65
2022/09/28 05:52:07;;;;;;;63.30;16.02;;;;;;;;;;5054434;28;20037;-65
2022/09/28 05:54:33;;;;;;;42.90;14.07;;;;;;;;;;5054378;28;20037;-65
2022/09/28 05:56:59;;;;;;;62.78;14.45;;;;;;;;;;5053603;28;20070;-65
2022/09/28 05:59:25;;;;;;;60.85;15.52;;;;;;;;;;5054252;28;20113;-65
2022/09/28 06:01:51;;;;;;;43.10;14.57;;;;;;;;;;5053008;28;20047;-65
2022/09/28 06:04:17;;;;;;;56.50;14.43;;;;;;;;;;5047747;28;20444;-64
2022/09/28 06:06:43;;;;;;;92.32;15.88;;;;;;;;;;5052389;28;20076;-64
2022/09/28 06:09:09;;;;;;;98.43;14.93;;;;;;;;;;5051271;28;20076;-64
2022/09/28 06:11:35;;;;;;;32.58;14.60;;;;;;;;;;5045655;28;20100;-64
2022/09/28 06:14:01;;;;;;;53.25;14.07;;;;;;;;;;5047918;28;20032;-65
2022/09/28 06:16:27;;;;;;;47.60;12.88;;;;;;;;;;5038193;28;20045;-65
2022/09/28 06:18:53;;;;;;;44.38;12.57;;;;;;;;;;5048980;28;20040;-64
2022/09/28 06:21:19;;;;;;;46.58;13.43;;;;;;;;;;5043398;28;20048;-65
2022/09/28 06:23:45;;;;;;;39.95;13.73;;;;;;;;;;5047875;28;20045;-65
2022/09/28 06:26:12;;;;;;;50.85;13.38;;;;;;;;;;5051483;28;20064;-64
2022/09/28 06:28:38;;;;;;;137.40;16.05;;;;;;;;;;5052322;28;20418;-65
2022/09/28 06:31:04;;;;;;;72.80;14.55;;;;;;;;;;5037803;28;20033;-65
2022/09/28 06:33:30;;;;;;;41.55;12.93;;;;;;;;;;5037161;28;20041;-65
2022/09/28 06:35:58;;;;;;;63.67;11.73;;;;;;;;;;5055650;28;20036;-65
2022/09/28 06:38:24;;;;;;;40.13;11.15;;;;;;;;;;5046401;28;20045;-65
2022/09/28 06:40:50;;;;;;;33.05;11.90;;;;;;;;;;5054246;28;20064;-65
2022/09/28 06:43:16;;;;;;;55.00;11.50;;;;;;;;;;5049782;28;20095;-65
2022/09/28 06:45:43;;;;;;;46.33;11.80;;;;;;;;;;5053397;28;20041;-65
2022/09/28 06:48:09;;;;;;;59.50;12.90;;;;;;;;;;5051581;28;20040;-65
2022/09/28 06:50:36;;;;;;;70.90;13.18;;;;;;;;;;5050837;28;20048;-65
2022/09/28 06:53:04;;;;;;;77.90;12.48;;;;;;;;;;5052651;28;20071;-65
2022/09/28 06:55:30;;;;;;;26.60;12.13;;;;;;;;;;5052862;28;20055;-65
2022/09/28 06:58:00;;;;;;;26.65;12.02;;;;;;;;;;5037611;28;20418;-65
2022/09/28 07:00:32;;;;;;;68.53;13.13;;;;;;;;;;5045495;28;20136;-65
2022/09/28 07:02:58;;;;;;;43.17;12.15;;;;;;;;;;5051977;28;20063;-66
2022/09/28 07:05:28;;;;;;;50.10;12.75;;;;;;;;;;5044909;28;20598;-65
2022/09/28 07:07:55;;;;;;;41.72;10.90;;;;;;;;;;5039262;28;20045;-65
2022/09/28 07:10:27;;;;;;;33.60;11.88;;;;;;;;;;5064887;28;20037;-65
2022/09/28 07:12:54;;;;;;;27.23;11.70;;;;;;;;;;5051206;28;20079;-65
2022/09/28 07:15:20;;;;;;;33.15;11.75;;;;;;;;;;5038758;28;20410;-65
2022/09/28 07:17:46;;;;;;;27.60;11.10;;;;;;;;;;5048292;28;20078;-65
2022/09/28 07:20:12;;;;;;;25.95;10.73;;;;;;;;;;5050073;28;20091;-65
2022/09/28 07:22:39;;;;;;;32.90;12.60;;;;;;;;;;5051454;28;20124;-65
2022/09/28 07:25:05;;;;;;;39.95;12.85;;;;;;;;;;5050849;28;20398;-65
2022/09/28 07:27:31;;;;;;;26.33;11.57;;;;;;;;;;5050190;28;20051;-65
2022/09/28 07:29:57;;;;;;;37.08;12.00;;;;;;;;;;5049827;28;20310;-65
2022/09/28 07:32:24;;;;;;;27.90;12.35;;;;;;;;;;5041212;28;20394;-65
2022/09/28 07:34:51;;;;;;;31.65;12.52;;;;;;;;;;5045618;28;20458;-65
2022/09/28 07:37:17;;;;;;;44.03;13.55;;;;;;;;;;5039688;28;20513;-65
2022/09/28 07:42:29;;;;;;;27.55;12.82;;;;;;;;;;5051297;28;20045;-65
2022/09/28 07:44:57;;;;;;;22.30;10.80;;;;;;;;;;5050002;28;20087;-65
2022/09/28 07:47:25;;;;;;;25.75;11.82;;;;;;;;;;5045774;28;20051;-65
2022/09/28 07:50:00;;;;;;;32.13;13.55;;;;;;;;;;5043392;28;20043;-65
2022/09/28 07:52:27;;;;;;;31.15;13.38;;;;;;;;;;5050789;28;20091;-65
2022/09/28 07:54:54;;;;;;;24.48;12.32;;;;;;;;;;5051524;28;20049;-65
2022/09/28 07:57:20;;;;;;;22.90;11.93;;;;;;;;;;5050970;28;20486;-65
2022/09/28 07:59:48;;;;;;;22.50;12.73;;;;;;;;;;5049730;28;20512;-64
2022/09/28 08:02:14;;;;;;;28.45;13.38;;;;;;;;;;5051192;28;20045;-65
2022/09/28 08:04:40;;;;;;;26.13;12.38;;;;;;;;;;5051646;28;20060;-65
2022/09/28 08:07:09;;;;;;;24.13;11.93;;;;;;;;;;5048235;28;20040;-64
2022/09/28 08:09:35;;;;;;;19.85;11.55;;;;;;;;;;5049215;28;20044;-65
2022/09/28 08:12:03;;;;;;;18.33;10.50;;;;;;;;;;5051298;28;20043;-65
2022/09/28 08:14:32;;;;;;;19.73;10.65;;;;;;;;;;5049974;28;20044;-65
2022/09/28 08:16:59;;;;;;;16.38;10.02;;;;;;;;;;5070040;22;20041;-68
2022/09/28 08:19:25;;;;;;;16.52;10.20;;;;;;;;;;5068332;28;20040;-68
2022/09/28 08:21:51;;;;;;;15.95;9.68;;;;;;;;;;5066739;28;20047;-68
2022/09/28 08:24:17;;;;;;;18.52;10.50;;;;;;;;;;5069616;28;20036;-68
2022/09/28 08:26:44;;;;;;;16.92;9.85;;;;;;;;;;5063951;28;20048;-68
2022/09/28 08:29:10;;;;;;;16.55;9.77;;;;;;;;;;5066785;28;20490;-68
2022/09/28 08:31:36;;;;;;;14.40;8.90;;;;;;;;;;5069500;28;20044;-68
2022/09/28 08:34:02;;;;;;;16.50;9.73;;;;;;;;;;5069061;28;20374;-68
2022/09/28 08:36:28;;;;;;;17.20;8.95;;;;;;;;;;5069865;28;20040;-67
2022/09/28 08:38:55;;;;;;;18.33;9.43;;;;;;;;;;5070984;28;20043;-68
2022/09/28 08:41:27;;;;;;;16.73;9.40;;;;;;;;;;5065420;28;20127;-68
2022/09/28 08:44:13;;;;;;;15.10;9.45;;;;;;;;;;5065182;28;20041;-68
2022/09/28 08:46:45;;;;;;;16.58;9.18;;;;;;;;;;5070409;28;20047;-68
2022/09/28 08:49:30;;;;;;;16.02;9.90;;;;;;;;;;5066900;28;20055;-68
2022/09/28 08:52:22;;;;;;;17.30;10.30;;;;;;;;;;5070822;28;20032;-68
2022/09/28 08:54:51;;;;;;;14.98;9.68;;;;;;;;;;5070728;28;20075;-68
2022/09/28 08:57:20;;;;;;;15.90;9.90;;;;;;;;;;5071256;28;20052;-68
2022/09/28 08:59:52;;;;;;;16.15;9.10;;;;;;;;;;5069839;28;20048;-68
2022/09/28 09:02:18;;;;;;;;;;;;;;;;;;5071049;28;20444;-68
2022/09/28 09:04:44;;;;;;;14.50;8.98;;;;;;;;;;5070549;28;19920;-68
2022/09/28 09:07:22;;;;;;;13.80;8.38;;;;;;;;;;5064931;28;20397;-68
2022/09/28 09:09:55;;;;;;;12.30;8.13;;;;;;;;;;5067664;28;20041;-69
2022/09/28 09:12:28;;;;;;;13.35;7.82;;;;;;;;;;5069570;28;20425;-68
2022/09/28 09:15:33;;;;;;;12.98;8.25;;;;;;;;;;5070578;28;20533;-69
2022/09/28 09:18:18;;;;;;;15.15;9.30;;;;;;;;;;5004927;28;20507;-68
2022/09/28 09:20:55;;;;;;;14.02;8.80;;;;;;;;;;5002004;28;20218;-68
2022/09/28 09:23:27;;;;;;;17.65;9.13;;;;;;;;;;5044328;28;20048;-68
2022/09/28 09:25:56;;;;;;;14.52;8.38;;;;;;;;;;5068713;28;20048;-68
2022/09/28 09:28:35;;;;;;;13.80;8.60;;;;;;;;;;5071183;28;20032;-69
2022/09/28 09:31:09;;;;;;;14.35;8.38;;;;;;;;;;5070843;28;20051;-68
2022/09/28 09:33:40;;;;;;;14.95;8.40;;;;;;;;;;5070524;28;20037;-68
2022/09/28 09:36:06;;;;;;;15.43;7.97;;;;;;;;;;5069042;28;20079;-69
2022/09/28 09:38:48;;;;;;;16.83;9.38;;;;;;;;;;5060457;28;20044;-69
2022/09/28 09:41:20;;;;;;;13.50;8.00;;;;;;;;;;5070661;28;20033;-68
2022/09/28 09:43:57;;;;;;;16.00;9.10;;;;;;;;;;5071146;28;20036;-69
2022/09/28 09:46:23;;;;;;;19.52;8.82;;;;;;;;;;5068195;28;20075;-68
2022/09/28 09:48:55;;;;;;;18.52;9.95;;;;;;;;;;5070845;28;20068;-69
2022/09/28 09:51:41;;;;;;;16.08;9.77;;;;;;;;;;5069415;28;20454;-68
2022/09/28 09:54:28;;;;;;;16.90;9.45;;;;;;;;;;5062705;28;20036;-68
2022/09/28 09:56:54;;;;;;;19.13;10.15;;;;;;;;;;5065533;28;20072;-68
2022/09/28 09:59:26;;;;;;;16.17;9.23;;;;;;;;;;5064213;28;20098;-69
2022/09/28 10:01:53;;;;;;;18.98;10.43;;;;;;;;;;5071491;28;20131;-69
2022/09/28 10:04:24;;;;;;;17.00;10.02;;;;;;;;;;5072735;28;20033;-69
2022/09/28 10:06:53;;;;;;;18.10;10.00;;;;;;;;;;5066393;28;20033;-69
2022/09/28 10:09:37;;;;;;;16.35;9.95;;;;;;;;;;5067660;28;20061;-69
2022/09/28 10:12:03;;;;;;;16.15;9.30;;;;;;;;;;5073754;28;20494;-69
2022/09/28 10:14:29;;;;;;;16.15;9.05;;;;;;;;;;5072177;28;20048;-68
2022/09/28 10:16:57;;;;;;;15.07;9.40;;;;;;;;;;5067871;28;20483;-69
2022/09/28 10:19:32;;;;;;;16.15;9.93;;;;;;;;;;5070632;28;20041;-69
2022/09/28 10:22:01;;;;;;;17.83;10.02;;;;;;;;;;5074014;28;20032;-69
2022/09/28 10:24:31;;;;;;;15.00;9.52;;;;;;;;;;5071899;28;20052;-69
2022/09/28 10:27:05;;;;;;;16.95;10.18;;;;;;;;;;5073949;28;20052;-69
2022/09/28 10:29:38;;;;;;;17.08;9.60;;;;;;;;;;5073738;28;20044;-68
2022/09/28 10:32:16;;;;;;;15.70;9.98;;;;;;;;;;5071260;28;20551;-68
2022/09/28 10:34:42;;;;;;;15.65;9.63;;;;;;;;;;5072753;28;20036;-69
2022/09/28 10:37:11;;;;;;;14.80;8.93;;;;;;;;;;5064008;28;20044;-69
2022/09/28 10:39:43;;;;;;;12.93;8.57;;;;;;;;;;5073657;28;20032;-69
2022/09/28 10:42:11;;;;;;;15.20;8.20;;;;;;;;;;5073885;28;20067;-69
2022/09/28 10:44:48;;;;;;;12.23;8.35;;;;;;;;;;5064111;28;20044;-68
2022/09/28 10:47:17;;;;;;;14.18;8.82;;;;;;;;;;5062620;28;20066;-68
2022/09/28 10:49:45;;;;;;;14.63;8.30;;;;;;;;;;5073729;28;20142;-69
2022/09/28 10:52:40;;;;;;;14.35;8.77;;;;;;;;;;5072386;28;20067;-68
2022/09/28 10:55:38;;;;;;;13.07;8.07;;;;;;;;;;5059568;28;20452;-69
2022/09/28 10:58:22;;;;;;;13.10;8.82;;;;;;;;;;5024349;28;20053;-69
2022/09/28 11:00:49;;;;;;;12.80;7.57;;;;;;;;;;5059854;28;20045;-69
2022/09/28 11:03:18;;;;;;;11.52;7.95;;;;;;;;;;5070213;28;20462;-69
2022/09/28 11:05:52;;;;;;;13.48;8.02;;;;;;;;;;5073160;28;20044;-69
2022/09/28 11:08:22;;;;;;;11.32;7.82;;;;;;;;;;5070731;28;20090;-68
2022/09/28 11:11:00;;;;;;;13.10;7.13;;;;;;;;;;5067309;28;20035;-69
2022/09/28 11:13:27;;;;;;;9.80;6.30;;;;;;;;;;5069436;28;20080;-68
2022/09/28 11:15:55;;;;;;;8.13;5.53;;;;;;;;;;5069850;28;20052;-68
2022/09/28 11:18:28;;;;;;;10.50;6.07;;;;;;;;;;5070966;28;20048;-68
2022/09/28 11:21:06;;;;;;;9.00;6.40;;;;;;;;;;5071138;28;20120;-69
2022/09/28 11:23:32;;;;;;;11.45;7.30;;;;;;;;;;5068348;28;20150;-69
2022/09/28 11:26:02;;;;;;;9.80;6.38;;;;;;;;;;5073142;28;20298;-69
2022/09/28 11:28:36;;;;;;;10.45;5.72;;;;;;;;;;5069580;28;20089;-69
2022/09/28 11:31:03;;;;;;;8.55;5.72;;;;;;;;;;5070639;28;20047;-69
2022/09/28 11:33:34;;;;;;;8.48;5.82;;;;;;;;;;5069672;28;20441;-69
2022/09/28 11:36:00;;;;;;;8.18;5.18;;;;;;;;;;5066498;28;20037;-69
2022/09/28 11:38:35;;;;;;;8.32;5.50;;;;;;;;;;5072518;28;20044;-69
2022/09/28 11:41:10;;;;;;;6.70;4.65;;;;;;;;;;5071490;28;20090;-69
2022/09/28 11:43:42;;;;;;;8.70;4.63;;;;;;;;;;5070531;28;20253;-69
2022/09/28 11:46:08;;;;;;;7.35;4.10;;;;;;;;;;5061179;28;20041;-69
2022/09/28 11:48:39;;;;;;;4.25;2.65;;;;;;;;;;5063343;28;20040;-68
2022/09/28 11:51:07;;;;;;;2.67;2.33;;;;;;;;;;5068137;28;20498;-68
2022/09/28 11:53:35;;;;;;;4.03;2.33;;;;;;;;;;5064113;28;20056;-68
2022/09/28 11:56:13;;;;;;;3.17;2.22;;;;;;;;;;5071408;28;20084;-69
2022/09/28 11:58:50;;;;;;;2.22;1.98;;;;;;;;;;5072006;28;20044;-69
2022/09/28 12:01:19;;;;;;;3.60;2.10;;;;;;;;;;5071294;28;20610;-69
2022/09/28 12:03:47;;;;;;;2.63;1.92;;;;;;;;;;5069923;28;20040;-69
2022/09/28 12:06:15;;;;;;;3.05;2.15;;;;;;;;;;5068973;28;20048;-69
2022/09/28 12:08:45;;;;;;;3.58;1.92;;;;;;;;;;5070366;28;20044;-69
2022/09/28 12:11:23;;;;;;;4.50;1.85;;;;;;;;;;5070147;28;20044;-69
2022/09/28 12:13:50;;;;;;;2.47;1.90;;;;;;;;;;5063984;28;20036;-69
2022/09/28 12:16:16;;;;;;;2.38;1.67;;;;;;;;;;5068452;28;20044;-69
2022/09/28 12:19:01;;;;;;;3.83;1.70;;;;;;;;;;5069660;28;20052;-69
2022/09/28 12:21:29;;;;;;;2.03;1.67;;;;;;;;;;5070025;28;20448;-69
2022/09/28 12:24:00;;;;;;;3.15;1.52;;;;;;;;;;5070392;28;20048;-69
2022/09/28 12:26:38;;;;;;;2.00;1.70;;;;;;;;;;5068496;28;20032;-69
2022/09/28 12:29:13;;;;;;;2.92;1.35;;;;;;;;;;5069365;28;20379;-69
2022/09/28 12:31:44;;;;;;;2.38;1.63;;;;;;;;;;5064429;28;20072;-69
2022/09/28 12:34:11;;;;;;;2.60;1.42;;;;;;;;;;5061732;28;20116;-69
2022/09/28 12:36:39;;;;;;;1.55;1.00;;;;;;;;;;5070121;28;20048;-69
2022/09/28 12:39:23;;;;;;;1.75;1.02;;;;;;;;;;5068631;28;20127;-69
2022/09/28 12:41:55;;;;;;;3.80;1.00;;;;;;;;;;5065410;28;20119;-69
2022/09/28 12:44:40;;;;;;;2.22;1.10;;;;;;;;;;5069214;28;20083;-68
2022/09/28 12:47:18;;;;;;;1.73;1.15;;;;;;;;;;5064678;28;20405;-69
2022/09/28 12:50:03;;;;;;;2.05;1.00;;;;;;;;;;5071650;28;20044;-68
2022/09/28 12:52:36;;;;;;;2.53;0.90;;;;;;;;;;5066763;28;20430;-68
2022/09/28 12:55:35;;;;;;;1.52;0.60;;;;;;;;;;5062271;28;20032;-67
2022/09/28 12:58:17;;;;;;;1.38;0.80;;;;;;;;;;5026124;28;20123;-68
2022/09/28 13:00:55;;;;;;;2.03;1.00;;;;;;;;;;5064702;28;20036;-67
2022/09/28 13:03:21;;;;;;;1.38;1.00;;;;;;;;;;5064215;28;20517;-68
2022/09/28 13:05:47;;;;;;;1.50;1.17;;;;;;;;;;5069691;28;20489;-67
2022/09/28 13:08:21;;;;;;;1.98;0.95;;;;;;;;;;5065402;28;20395;-68
2022/09/28 13:11:05;;;;;;;2.95;1.05;;;;;;;;;;5065361;28;20044;-67
2022/09/28 13:13:40;;;;;;;1.80;0.82;;;;;;;;;;5063736;28;20037;-67
2022/09/28 13:16:16;;;;;;;1.90;1.00;;;;;;;;;;5061683;28;20454;-68
2022/09/28 13:18:46;;;;;;;1.35;1.00;;;;;;;;;;5065951;28;20051;-67
2022/09/28 13:21:33;;;;;;;1.83;1.02;;;;;;;;;;5068994;28;20040;-68
2022/09/28 13:24:00;;;;;;;1.98;0.93;;;;;;;;;;5021915;28;20095;-67
2022/09/28 13:26:38;;;;;;;3.42;1.00;;;;;;;;;;5062571;28;20037;-68
2022/09/28 13:29:09;;;;;;;2.55;1.10;;;;;;;;;;5062928;28;20033;-68
2022/09/28 13:31:39;;;;;;;2.42;1.20;;;;;;;;;;5063785;28;20033;-67
2022/09/28 13:34:07;;;;;;;1.58;1.00;;;;;;;;;;5062976;28;20041;-67
2022/09/28 13:36:35;;;;;;;1.10;0.85;;;;;;;;;;5062892;28;20040;-68
2022/09/28 13:39:01;;;;;;;1.20;0.98;;;;;;;;;;5072656;28;20557;-69
2022/09/28 13:41:30;;;;;;;2.75;0.88;;;;;;;;;;5074892;28;20123;-69
2022/09/28 13:43:59;;;;;;;1.60;0.80;;;;;;;;;;5072195;28;20075;-69
2022/09/28 13:46:28;;;;;;;1.38;0.95;;;;;;;;;;5071183;28;20037;-69
2022/09/28 13:49:05;;;;;;;1.73;1.00;;;;;;;;;;5074336;28;20036;-69
2022/09/28 13:51:48;;;;;;;0.63;0.50;;;;;;;;;;5072021;28;20032;-69
2022/09/28 13:54:17;;;;;;;0.70;0.40;;;;;;;;;;5071812;28;20043;-69
2022/09/28 13:56:54;;;;;;;0.98;0.22;;;;;;;;;;5064264;28;20040;-69
2022/09/28 13:59:27;;;;;;;0.32;0.25;;;;;;;;;;5074474;28;20041;-69
2022/09/28 14:05:55;;;;;;;0.93;0.40;;;;;;;;;;5044538;28;20056;-67
2022/09/28 14:08:30;;;;;;;0.80;0.50;;;;;;;;;;5060897;22;20487;-64
2022/09/28 14:11:14;;;;;;;0.40;0.32;;;;;;;;;;5045937;28;20517;-63
2022/09/28 14:13:40;;;;;;;1.30;0.40;;;;;;;;;;5047287;28;20132;-64
2022/09/28 14:19:11;;;;;;;0.52;0.43;;;;;;;;;;5066711;28;20052;-65
2022/09/28 14:21:37;;;;;;;1.17;0.30;;;;;;;;;;5061528;28;20048;-65
2022/09/28 14:24:15;;;;;;;1.85;0.40;;;;;;;;;;5063906;28;20362;-66
2022/09/28 14:26:47;;;;;;;0.38;0.30;;;;;;;;;;5063959;28;20095;-65
2022/09/28 14:29:27;;;;;;;0.50;0.30;;;;;;;;;;5043472;28;20036;-65
2022/09/28 14:31:54;;;;;;;0.93;0.50;;;;;;;;;;5041507;28;20083;-65
2022/09/28 14:34:31;;;;;;;1.38;0.55;;;;;;;;;;5044569;28;20116;-66
2022/09/28 14:42:31;;;;;;;1.08;0.40;;;;;;;;;;5052869;28;20411;-65
2022/09/28 14:44:57;;;;;;;0.93;0.32;;;;;;;;;;5039859;28;20036;-66
2022/09/28 14:47:41;;;;;;;0.40;0.22;;;;;;;;;;5031608;28;20471;-65
2022/09/28 14:50:20;;;;;;;1.27;0.32;;;;;;;;;;5049646;28;20052;-65
2022/09/28 14:52:50;;;;;;;0.47;0.20;;;;;;;;;;5052979;28;20674;-65
2022/09/28 14:55:18;;;;;;;0.75;0.52;;;;;;;;;;5052009;28;20045;-65
2022/09/28 14:57:51;;;;;;;1.75;0.40;;;;;;;;;;5045351;28;20040;-65
2022/09/28 15:00:20;;;;;;;0.38;0.30;;;;;;;;;;5048189;28;20037;-65
2022/09/28 15:02:51;;;;;;;2.05;0.30;;;;;;;;;;5045421;28;20483;-65
2022/09/28 15:05:26;;;;;;;0.90;0.47;;;;;;;;;;5044304;28;20254;-65
2022/09/28 15:07:53;;;;;;;0.43;0.30;;;;;;;;;;5039632;28;20030;-65
2022/09/28 15:10:30;;;;;;;1.73;0.40;;;;;;;;;;5043791;28;20075;-64